sensor_id;sensor_type;location;lat;lon;timestamp;P1;durP1;ratioP1;P2;durP2;ratioP2
75320;SDS011;68337;52.196;5.660;2023-04-03T00:00:22;3.28;;;2.10;;
75320;SDS011;68337;52.196;5.660;2023-04-03T00:02:47;3.47;;;1.35;;
75320;SDS011;68337;52.196;5.660;2023-04-03T00:05:13;2.78;;;1.65;;
75320;SDS011;68337;52.196;5.660;2023-04-03T00:07:39;3.78;;;1.63;;
75320;SDS011;68337;52.196;5.660;2023-04-03T00:10:05;4.35;;;1.55;;
75320;SDS011;68337;52.196;5.660;2023-04-03T00:12:31;3.80;;;1.55;;
75320;SDS011;68337;52.196;5.660;2023-04-03T00:14:57;4.05;;;1.50;;
75320;SDS011;68337;52.196;5.660;2023-04-03T00:17:22;2.25;;;1.33;;
75320;SDS011;68337;52.196;5.660;2023-04-03T00:19:48;2.83;;;1.20;;
75320;SDS011;68337;52.196;5.660;2023-04-03T00:22:14;2.15;;;1.95;;
75320;SDS011;68337;52.196;5.660;2023-04-03T00:24:39;1.67;;;1.40;;
75320;SDS011;68337;52.196;5.660;2023-04-03T00:27:05;4.03;;;1.60;;
75320;SDS011;68337;52.196;5.660;2023-04-03T00:29:30;4.88;;;1.88;;
75320;SDS011;68337;52.196;5.660;2023-04-03T00:31:56;4.18;;;1.63;;
75320;SDS011;68337;52.196;5.660;2023-04-03T00:34:22;3.10;;;1.70;;
75320;SDS011;68337;52.196;5.660;2023-04-03T00:36:47;4.78;;;1.58;;
75320;SDS011;68337;52.196;5.660;2023-04-03T00:39:13;4.97;;;2.03;;
75320;SDS011;68337;52.196;5.660;2023-04-03T00:41:39;1.98;;;1.40;;
75320;SDS011;68337;52.196;5.660;2023-04-03T00:44:19;1.67;;;1.48;;
75320;SDS011;68337;52.196;5.660;2023-04-03T00:46:45;3.20;;;1.70;;
75320;SDS011;68337;52.196;5.660;2023-04-03T00:49:11;1.60;;;1.50;;
75320;SDS011;68337;52.196;5.660;2023-04-03T00:51:36;5.70;;;2.17;;
75320;SDS011;68337;52.196;5.660;2023-04-03T00:54:03;2.45;;;1.77;;
75320;SDS011;68337;52.196;5.660;2023-04-03T00:56:30;5.05;;;1.77;;
75320;SDS011;68337;52.196;5.660;2023-04-03T00:58:58;3.42;;;1.45;;
75320;SDS011;68337;52.196;5.660;2023-04-03T01:01:52;3.72;;;1.90;;
75320;SDS011;68337;52.196;5.660;2023-04-03T01:07:00;2.55;;;1.50;;
75320;SDS011;68337;52.196;5.660;2023-04-03T01:09:57;2.22;;;1.95;;
75320;SDS011;68337;52.196;5.660;2023-04-03T01:12:25;3.60;;;1.90;;
75320;SDS011;68337;52.196;5.660;2023-04-03T01:15:16;3.45;;;1.80;;
75320;SDS011;68337;52.196;5.660;2023-04-03T01:17:44;3.28;;;1.67;;
75320;SDS011;68337;52.196;5.660;2023-04-03T01:22:59;3.38;;;2.05;;
75320;SDS011;68337;52.196;5.660;2023-04-03T01:25:50;3.53;;;1.80;;
75320;SDS011;68337;52.196;5.660;2023-04-03T01:30:58;4.57;;;2.10;;
75320;SDS011;68337;52.196;5.660;2023-04-03T01:33:44;2.85;;;2.00;;
75320;SDS011;68337;52.196;5.660;2023-04-03T01:36:11;3.58;;;1.60;;
75320;SDS011;68337;52.196;5.660;2023-04-03T01:38:46;2.95;;;1.70;;
75320;SDS011;68337;52.196;5.660;2023-04-03T01:41:13;6.22;;;1.88;;
75320;SDS011;68337;52.196;5.660;2023-04-03T01:43:39;8.82;;;1.80;;
75320;SDS011;68337;52.196;5.660;2023-04-03T01:46:05;2.65;;;1.92;;
75320;SDS011;68337;52.196;5.660;2023-04-03T01:48:30;5.47;;;2.00;;
75320;SDS011;68337;52.196;5.660;2023-04-03T01:50:56;6.03;;;1.75;;
75320;SDS011;68337;52.196;5.660;2023-04-03T01:53:22;2.20;;;1.63;;
75320;SDS011;68337;52.196;5.660;2023-04-03T01:55:48;2.97;;;1.90;;
75320;SDS011;68337;52.196;5.660;2023-04-03T01:58:13;2.50;;;2.10;;
75320;SDS011;68337;52.196;5.660;2023-04-03T02:00:39;3.80;;;1.67;;
75320;SDS011;68337;52.196;5.660;2023-04-03T02:03:05;2.50;;;1.73;;
75320;SDS011;68337;52.196;5.660;2023-04-03T02:05:31;2.78;;;1.88;;
75320;SDS011;68337;52.196;5.660;2023-04-03T02:07:57;4.93;;;2.38;;
75320;SDS011;68337;52.196;5.660;2023-04-03T02:10:23;5.07;;;2.10;;
75320;SDS011;68337;52.196;5.660;2023-04-03T02:12:49;3.15;;;1.85;;
75320;SDS011;68337;52.196;5.660;2023-04-03T02:15:15;4.75;;;1.73;;
75320;SDS011;68337;52.196;5.660;2023-04-03T02:17:41;3.10;;;1.95;;
75320;SDS011;68337;52.196;5.660;2023-04-03T02:20:07;4.03;;;2.05;;
75320;SDS011;68337;52.196;5.660;2023-04-03T02:22:33;4.55;;;2.20;;
75320;SDS011;68337;52.196;5.660;2023-04-03T02:24:59;2.08;;;1.70;;
75320;SDS011;68337;52.196;5.660;2023-04-03T02:27:24;3.10;;;2.03;;
75320;SDS011;68337;52.196;5.660;2023-04-03T02:29:50;2.83;;;1.88;;
75320;SDS011;68337;52.196;5.660;2023-04-03T02:32:16;3.50;;;1.80;;
75320;SDS011;68337;52.196;5.660;2023-04-03T02:34:41;6.35;;;1.58;;
75320;SDS011;68337;52.196;5.660;2023-04-03T02:37:07;3.80;;;2.08;;
75320;SDS011;68337;52.196;5.660;2023-04-03T02:39:33;3.58;;;2.05;;
75320;SDS011;68337;52.196;5.660;2023-04-03T02:41:59;2.60;;;1.90;;
75320;SDS011;68337;52.196;5.660;2023-04-03T02:44:25;6.13;;;1.95;;
75320;SDS011;68337;52.196;5.660;2023-04-03T02:46:50;6.82;;;2.10;;
75320;SDS011;68337;52.196;5.660;2023-04-03T02:49:16;4.05;;;1.88;;
75320;SDS011;68337;52.196;5.660;2023-04-03T02:51:42;4.05;;;2.20;;
75320;SDS011;68337;52.196;5.660;2023-04-03T02:54:08;5.53;;;2.45;;
75320;SDS011;68337;52.196;5.660;2023-04-03T02:56:35;4.82;;;2.00;;
75320;SDS011;68337;52.196;5.660;2023-04-03T02:59:00;3.17;;;1.90;;
75320;SDS011;68337;52.196;5.660;2023-04-03T03:01:26;3.22;;;2.22;;
75320;SDS011;68337;52.196;5.660;2023-04-03T03:03:56;6.45;;;1.95;;
75320;SDS011;68337;52.196;5.660;2023-04-03T03:06:22;5.53;;;2.28;;
75320;SDS011;68337;52.196;5.660;2023-04-03T03:08:48;8.07;;;2.45;;
75320;SDS011;68337;52.196;5.660;2023-04-03T03:11:14;3.65;;;1.98;;
75320;SDS011;68337;52.196;5.660;2023-04-03T03:13:40;7.63;;;2.13;;
75320;SDS011;68337;52.196;5.660;2023-04-03T03:16:06;2.75;;;1.90;;
75320;SDS011;68337;52.196;5.660;2023-04-03T03:18:33;4.60;;;2.33;;
75320;SDS011;68337;52.196;5.660;2023-04-03T03:20:59;5.10;;;2.13;;
75320;SDS011;68337;52.196;5.660;2023-04-03T03:23:27;3.53;;;2.05;;
75320;SDS011;68337;52.196;5.660;2023-04-03T03:25:54;3.70;;;2.17;;
75320;SDS011;68337;52.196;5.660;2023-04-03T03:28:24;4.72;;;2.42;;
75320;SDS011;68337;52.196;5.660;2023-04-03T03:30:50;5.32;;;2.30;;
75320;SDS011;68337;52.196;5.660;2023-04-03T03:33:16;6.45;;;2.25;;
75320;SDS011;68337;52.196;5.660;2023-04-03T03:35:42;5.63;;;2.25;;
75320;SDS011;68337;52.196;5.660;2023-04-03T03:38:08;6.00;;;2.20;;
75320;SDS011;68337;52.196;5.660;2023-04-03T03:40:34;3.70;;;2.20;;
75320;SDS011;68337;52.196;5.660;2023-04-03T03:43:00;5.95;;;2.30;;
75320;SDS011;68337;52.196;5.660;2023-04-03T03:45:26;11.65;;;2.45;;
75320;SDS011;68337;52.196;5.660;2023-04-03T03:47:51;6.25;;;2.83;;
75320;SDS011;68337;52.196;5.660;2023-04-03T03:50:17;4.57;;;2.28;;
75320;SDS011;68337;52.196;5.660;2023-04-03T03:52:43;2.88;;;2.38;;
75320;SDS011;68337;52.196;5.660;2023-04-03T03:55:09;6.43;;;2.35;;
75320;SDS011;68337;52.196;5.660;2023-04-03T03:57:35;3.95;;;2.38;;
75320;SDS011;68337;52.196;5.660;2023-04-03T04:00:01;3.58;;;2.40;;
75320;SDS011;68337;52.196;5.660;2023-04-03T04:02:28;4.72;;;2.50;;
75320;SDS011;68337;52.196;5.660;2023-04-03T04:04:54;4.60;;;2.42;;
75320;SDS011;68337;52.196;5.660;2023-04-03T04:07:20;6.75;;;2.50;;
75320;SDS011;68337;52.196;5.660;2023-04-03T04:09:45;6.05;;;2.72;;
75320;SDS011;68337;52.196;5.660;2023-04-03T04:12:11;6.78;;;2.70;;
75320;SDS011;68337;52.196;5.660;2023-04-03T04:14:37;6.07;;;2.15;;
75320;SDS011;68337;52.196;5.660;2023-04-03T04:17:02;4.93;;;3.13;;
75320;SDS011;68337;52.196;5.660;2023-04-03T04:19:28;8.27;;;2.53;;
75320;SDS011;68337;52.196;5.660;2023-04-03T04:21:54;5.63;;;2.40;;
75320;SDS011;68337;52.196;5.660;2023-04-03T04:24:20;6.35;;;2.92;;
75320;SDS011;68337;52.196;5.660;2023-04-03T04:26:47;3.55;;;2.20;;
75320;SDS011;68337;52.196;5.660;2023-04-03T04:29:13;4.55;;;2.28;;
75320;SDS011;68337;52.196;5.660;2023-04-03T04:31:39;2.72;;;2.33;;
75320;SDS011;68337;52.196;5.660;2023-04-03T04:34:05;5.22;;;2.47;;
75320;SDS011;68337;52.196;5.660;2023-04-03T04:36:31;5.57;;;2.45;;
75320;SDS011;68337;52.196;5.660;2023-04-03T04:38:56;5.30;;;2.78;;
75320;SDS011;68337;52.196;5.660;2023-04-03T04:41:23;8.30;;;2.50;;
75320;SDS011;68337;52.196;5.660;2023-04-03T04:43:50;7.07;;;2.67;;
75320;SDS011;68337;52.196;5.660;2023-04-03T04:46:16;4.40;;;2.13;;
75320;SDS011;68337;52.196;5.660;2023-04-03T04:48:42;3.63;;;2.50;;
75320;SDS011;68337;52.196;5.660;2023-04-03T04:51:08;6.47;;;2.42;;
75320;SDS011;68337;52.196;5.660;2023-04-03T04:53:34;7.38;;;3.08;;
75320;SDS011;68337;52.196;5.660;2023-04-03T04:56:00;4.35;;;2.83;;
75320;SDS011;68337;52.196;5.660;2023-04-03T04:58:26;6.68;;;2.45;;
75320;SDS011;68337;52.196;5.660;2023-04-03T05:01:05;8.82;;;3.20;;
75320;SDS011;68337;52.196;5.660;2023-04-03T05:03:32;3.58;;;2.42;;
75320;SDS011;68337;52.196;5.660;2023-04-03T05:05:58;8.20;;;2.55;;
75320;SDS011;68337;52.196;5.660;2023-04-03T05:08:25;8.07;;;3.15;;
75320;SDS011;68337;52.196;5.660;2023-04-03T05:10:51;5.63;;;3.08;;
75320;SDS011;68337;52.196;5.660;2023-04-03T05:13:18;5.18;;;2.90;;
75320;SDS011;68337;52.196;5.660;2023-04-03T05:15:43;8.05;;;2.83;;
75320;SDS011;68337;52.196;5.660;2023-04-03T05:18:10;6.13;;;2.90;;
75320;SDS011;68337;52.196;5.660;2023-04-03T05:20:35;5.82;;;2.80;;
75320;SDS011;68337;52.196;5.660;2023-04-03T05:23:02;4.43;;;2.83;;
75320;SDS011;68337;52.196;5.660;2023-04-03T05:25:28;4.95;;;2.90;;
75320;SDS011;68337;52.196;5.660;2023-04-03T05:27:53;5.80;;;2.38;;
75320;SDS011;68337;52.196;5.660;2023-04-03T05:30:19;5.97;;;3.20;;
75320;SDS011;68337;52.196;5.660;2023-04-03T05:32:45;9.57;;;3.17;;
75320;SDS011;68337;52.196;5.660;2023-04-03T05:35:11;5.10;;;3.15;;
75320;SDS011;68337;52.196;5.660;2023-04-03T05:37:37;6.47;;;2.65;;
75320;SDS011;68337;52.196;5.660;2023-04-03T05:40:03;4.47;;;3.00;;
75320;SDS011;68337;52.196;5.660;2023-04-03T05:42:30;7.80;;;3.15;;
75320;SDS011;68337;52.196;5.660;2023-04-03T05:44:55;5.25;;;3.08;;
75320;SDS011;68337;52.196;5.660;2023-04-03T05:47:21;4.70;;;2.92;;
75320;SDS011;68337;52.196;5.660;2023-04-03T05:49:47;7.40;;;2.90;;
75320;SDS011;68337;52.196;5.660;2023-04-03T05:52:26;5.63;;;3.08;;
75320;SDS011;68337;52.196;5.660;2023-04-03T05:54:54;7.57;;;3.30;;
75320;SDS011;68337;52.196;5.660;2023-04-03T05:57:20;7.18;;;3.03;;
75320;SDS011;68337;52.196;5.660;2023-04-03T05:59:47;6.38;;;2.92;;
75320;SDS011;68337;52.196;5.660;2023-04-03T06:02:17;4.18;;;3.00;;
75320;SDS011;68337;52.196;5.660;2023-04-03T06:04:45;7.88;;;3.40;;
75320;SDS011;68337;52.196;5.660;2023-04-03T06:07:11;7.05;;;3.03;;
75320;SDS011;68337;52.196;5.660;2023-04-03T06:09:40;6.60;;;2.70;;
75320;SDS011;68337;52.196;5.660;2023-04-03T06:12:07;5.90;;;3.35;;
75320;SDS011;68337;52.196;5.660;2023-04-03T06:14:33;5.78;;;3.10;;
75320;SDS011;68337;52.196;5.660;2023-04-03T06:16:58;9.10;;;3.33;;
75320;SDS011;68337;52.196;5.660;2023-04-03T06:19:25;4.45;;;3.17;;
75320;SDS011;68337;52.196;5.660;2023-04-03T06:21:51;7.00;;;3.05;;
75320;SDS011;68337;52.196;5.660;2023-04-03T06:24:17;6.70;;;3.33;;
75320;SDS011;68337;52.196;5.660;2023-04-03T06:26:43;10.57;;;3.05;;
75320;SDS011;68337;52.196;5.660;2023-04-03T06:29:09;4.70;;;2.65;;
75320;SDS011;68337;52.196;5.660;2023-04-03T06:31:35;6.43;;;3.00;;
75320;SDS011;68337;52.196;5.660;2023-04-03T06:34:04;10.05;;;2.53;;
75320;SDS011;68337;52.196;5.660;2023-04-03T06:36:32;5.72;;;2.60;;
75320;SDS011;68337;52.196;5.660;2023-04-03T06:38:58;3.15;;;2.67;;
75320;SDS011;68337;52.196;5.660;2023-04-03T06:41:24;7.75;;;2.25;;
75320;SDS011;68337;52.196;5.660;2023-04-03T06:43:51;5.55;;;2.40;;
75320;SDS011;68337;52.196;5.660;2023-04-03T06:46:18;6.25;;;2.75;;
75320;SDS011;68337;52.196;5.660;2023-04-03T06:48:45;5.82;;;2.47;;
75320;SDS011;68337;52.196;5.660;2023-04-03T06:51:18;7.72;;;2.65;;
75320;SDS011;68337;52.196;5.660;2023-04-03T06:53:48;7.43;;;2.28;;
75320;SDS011;68337;52.196;5.660;2023-04-03T06:56:15;6.65;;;2.47;;
75320;SDS011;68337;52.196;5.660;2023-04-03T06:58:42;6.90;;;2.50;;
75320;SDS011;68337;52.196;5.660;2023-04-03T07:01:09;5.63;;;2.40;;
75320;SDS011;68337;52.196;5.660;2023-04-03T07:03:36;4.47;;;2.05;;
75320;SDS011;68337;52.196;5.660;2023-04-03T07:06:02;5.30;;;2.20;;
75320;SDS011;68337;52.196;5.660;2023-04-03T07:08:29;4.28;;;2.15;;
75320;SDS011;68337;52.196;5.660;2023-04-03T07:10:56;4.97;;;2.08;;
75320;SDS011;68337;52.196;5.660;2023-04-03T07:13:21;7.10;;;2.45;;
75320;SDS011;68337;52.196;5.660;2023-04-03T07:15:47;5.85;;;2.42;;
75320;SDS011;68337;52.196;5.660;2023-04-03T07:18:15;6.70;;;1.85;;
75320;SDS011;68337;52.196;5.660;2023-04-03T07:20:42;4.85;;;2.38;;
75320;SDS011;68337;52.196;5.660;2023-04-03T07:23:08;5.78;;;2.20;;
75320;SDS011;68337;52.196;5.660;2023-04-03T07:25:34;3.90;;;2.00;;
75320;SDS011;68337;52.196;5.660;2023-04-03T07:28:00;3.33;;;1.73;;
75320;SDS011;68337;52.196;5.660;2023-04-03T07:30:26;4.78;;;2.30;;
75320;SDS011;68337;52.196;5.660;2023-04-03T07:32:52;8.20;;;2.20;;
75320;SDS011;68337;52.196;5.660;2023-04-03T07:35:18;5.03;;;2.00;;
75320;SDS011;68337;52.196;5.660;2023-04-03T07:37:44;6.25;;;2.17;;
75320;SDS011;68337;52.196;5.660;2023-04-03T07:40:11;4.00;;;1.95;;
75320;SDS011;68337;52.196;5.660;2023-04-03T07:42:37;5.65;;;1.95;;
75320;SDS011;68337;52.196;5.660;2023-04-03T07:45:03;4.80;;;1.70;;
75320;SDS011;68337;52.196;5.660;2023-04-03T07:47:29;4.07;;;1.83;;
75320;SDS011;68337;52.196;5.660;2023-04-03T07:49:56;4.05;;;2.05;;
75320;SDS011;68337;52.196;5.660;2023-04-03T07:52:23;4.38;;;1.73;;
75320;SDS011;68337;52.196;5.660;2023-04-03T07:54:49;7.53;;;2.40;;
75320;SDS011;68337;52.196;5.660;2023-04-03T07:57:14;2.85;;;1.70;;
75320;SDS011;68337;52.196;5.660;2023-04-03T07:59:41;4.13;;;2.05;;
75320;SDS011;68337;52.196;5.660;2023-04-03T08:02:11;6.70;;;1.67;;
75320;SDS011;68337;52.196;5.660;2023-04-03T08:04:37;3.78;;;1.60;;
75320;SDS011;68337;52.196;5.660;2023-04-03T08:07:03;8.73;;;2.65;;
75320;SDS011;68337;52.196;5.660;2023-04-03T08:09:29;6.57;;;1.85;;
75320;SDS011;68337;52.196;5.660;2023-04-03T08:11:55;4.63;;;1.83;;
75320;SDS011;68337;52.196;5.660;2023-04-03T08:14:20;2.25;;;1.52;;
75320;SDS011;68337;52.196;5.660;2023-04-03T08:16:47;1.60;;;1.50;;
75320;SDS011;68337;52.196;5.660;2023-04-03T08:19:14;3.28;;;1.42;;
75320;SDS011;68337;52.196;5.660;2023-04-03T08:21:42;3.95;;;1.48;;
75320;SDS011;68337;52.196;5.660;2023-04-03T08:24:09;3.40;;;1.45;;
75320;SDS011;68337;52.196;5.660;2023-04-03T08:26:35;2.28;;;1.20;;
75320;SDS011;68337;52.196;5.660;2023-04-03T08:29:01;5.43;;;1.17;;
75320;SDS011;68337;52.196;5.660;2023-04-03T08:31:27;1.83;;;1.10;;
75320;SDS011;68337;52.196;5.660;2023-04-03T08:33:53;2.72;;;1.20;;
75320;SDS011;68337;52.196;5.660;2023-04-03T08:36:20;3.25;;;1.40;;
75320;SDS011;68337;52.196;5.660;2023-04-03T08:38:47;4.78;;;1.23;;
75320;SDS011;68337;52.196;5.660;2023-04-03T08:41:25;2.90;;;1.40;;
75320;SDS011;68337;52.196;5.660;2023-04-03T08:49:42;0.90;;;0.70;;
75320;SDS011;68337;52.196;5.660;2023-04-03T08:52:18;1.83;;;0.90;;
75320;SDS011;68337;52.196;5.660;2023-04-03T08:57:48;1.88;;;1.02;;
75320;SDS011;68337;52.196;5.660;2023-04-03T09:02:48;2.40;;;1.35;;
75320;SDS011;68337;52.196;5.660;2023-04-03T09:05:20;6.60;;;4.88;;
75320;SDS011;68337;52.196;5.660;2023-04-03T09:08:07;1.95;;;1.08;;
75320;SDS011;68337;52.196;5.660;2023-04-03T09:21:58;1.50;;;1.10;;
75320;SDS011;68337;52.196;5.660;2023-04-03T09:24:31;1.23;;;0.90;;
75320;SDS011;68337;52.196;5.660;2023-04-03T09:27:03;0.65;;;0.65;;
75320;SDS011;68337;52.196;5.660;2023-04-03T09:29:31;0.65;;;0.65;;
75320;SDS011;68337;52.196;5.660;2023-04-03T09:32:01;1.17;;;0.60;;
75320;SDS011;68337;52.196;5.660;2023-04-03T09:34:37;0.73;;;0.57;;
75320;SDS011;68337;52.196;5.660;2023-04-03T09:37:06;1.10;;;0.70;;
75320;SDS011;68337;52.196;5.660;2023-04-03T09:39:51;0.93;;;0.70;;
75320;SDS011;68337;52.196;5.660;2023-04-03T09:42:20;1.33;;;0.80;;
75320;SDS011;68337;52.196;5.660;2023-04-03T09:44:55;0.98;;;0.80;;
75320;SDS011;68337;52.196;5.660;2023-04-03T09:52:39;1.42;;;0.70;;
75320;SDS011;68337;52.196;5.660;2023-04-03T09:55:07;1.13;;;0.68;;
75320;SDS011;68337;52.196;5.660;2023-04-03T09:57:35;1.25;;;0.65;;
75320;SDS011;68337;52.196;5.660;2023-04-03T10:00:04;1.33;;;0.80;;
75320;SDS011;68337;52.196;5.660;2023-04-03T10:02:39;1.83;;;0.95;;
75320;SDS011;68337;52.196;5.660;2023-04-03T10:10:41;0.85;;;0.82;;
75320;SDS011;68337;52.196;5.660;2023-04-03T10:15:42;0.50;;;0.50;;
75320;SDS011;68337;52.196;5.660;2023-04-03T10:21:08;0.82;;;0.73;;
75320;SDS011;68337;52.196;5.660;2023-04-03T10:31:59;1.95;;;1.00;;
75320;SDS011;68337;52.196;5.660;2023-04-03T10:34:35;1.75;;;1.25;;
75320;SDS011;68337;52.196;5.660;2023-04-03T10:39:51;2.47;;;0.60;;
75320;SDS011;68337;52.196;5.660;2023-04-03T10:42:27;1.80;;;0.98;;
75320;SDS011;68337;52.196;5.660;2023-04-03T10:45:29;1.45;;;1.05;;
75320;SDS011;68337;52.196;5.660;2023-04-03T10:48:22;3.08;;;1.10;;
75320;SDS011;68337;52.196;5.660;2023-04-03T10:52:04;3.80;;;0.90;;
75320;SDS011;68337;52.196;5.660;2023-04-03T10:54:14;2.42;;;0.80;;
75320;SDS011;68337;52.196;5.660;2023-04-03T10:56:51;1.02;;;0.73;;
75320;SDS011;68337;52.196;5.660;2023-04-03T11:01:56;1.67;;;0.90;;
75320;SDS011;68337;52.196;5.660;2023-04-03T11:04:26;2.05;;;0.95;;
75320;SDS011;68337;52.196;5.660;2023-04-03T11:06:57;2.20;;;1.00;;
75320;SDS011;68337;52.196;5.660;2023-04-03T11:09:35;1.38;;;0.88;;
75320;SDS011;68337;52.196;5.660;2023-04-03T11:12:09;0.80;;;0.65;;
75320;SDS011;68337;52.196;5.660;2023-04-03T11:14:40;0.60;;;0.60;;
75320;SDS011;68337;52.196;5.660;2023-04-03T11:19:38;1.60;;;0.68;;
75320;SDS011;68337;52.196;5.660;2023-04-03T11:22:16;1.83;;;0.80;;
75320;SDS011;68337;52.196;5.660;2023-04-03T11:27:41;1.70;;;0.68;;
75320;SDS011;68337;52.196;5.660;2023-04-03T11:30:18;1.60;;;0.70;;
75320;SDS011;68337;52.196;5.660;2023-04-03T11:35:35;0.90;;;0.52;;
75320;SDS011;68337;52.196;5.660;2023-04-03T11:38:02;0.80;;;0.65;;
75320;SDS011;68337;52.196;5.660;2023-04-03T11:40:32;1.20;;;0.63;;
75320;SDS011;68337;52.196;5.660;2023-04-03T11:50:52;3.30;;;0.90;;
75320;SDS011;68337;52.196;5.660;2023-04-03T11:53:25;0.90;;;0.60;;
75320;SDS011;68337;52.196;5.660;2023-04-03T11:55:55;1.30;;;0.90;;
75320;SDS011;68337;52.196;5.660;2023-04-03T11:58:35;1.63;;;0.80;;
75320;SDS011;68337;52.196;5.660;2023-04-03T12:16:03;0.95;;;0.82;;
75320;SDS011;68337;52.196;5.660;2023-04-03T12:18:31;1.48;;;0.60;;
75320;SDS011;68337;52.196;5.660;2023-04-03T12:21:06;1.23;;;0.80;;
75320;SDS011;68337;52.196;5.660;2023-04-03T12:23:33;2.13;;;0.80;;
75320;SDS011;68337;52.196;5.660;2023-04-03T12:26:26;1.15;;;0.75;;
75320;SDS011;68337;52.196;5.660;2023-04-03T12:28:55;1.90;;;1.00;;
75320;SDS011;68337;52.196;5.660;2023-04-03T12:31:22;0.90;;;0.70;;
75320;SDS011;68337;52.196;5.660;2023-04-03T12:48:15;3.78;;;0.80;;
75320;SDS011;68337;52.196;5.660;2023-04-03T12:50:43;1.08;;;0.98;;
75320;SDS011;68337;52.196;5.660;2023-04-03T12:53:12;2.45;;;1.00;;
75320;SDS011;68337;52.196;5.660;2023-04-03T12:55:47;1.48;;;0.93;;
75320;SDS011;68337;52.196;5.660;2023-04-03T12:58:25;2.45;;;0.98;;
75320;SDS011;68337;52.196;5.660;2023-04-03T13:01:02;1.85;;;1.15;;
75320;SDS011;68337;52.196;5.660;2023-04-03T13:03:34;2.78;;;1.05;;
75320;SDS011;68337;52.196;5.660;2023-04-03T13:06:14;2.40;;;0.90;;
75320;SDS011;68337;52.196;5.660;2023-04-03T13:08:56;2.03;;;1.23;;
75320;SDS011;68337;52.196;5.660;2023-04-03T13:11:25;2.40;;;0.80;;
75320;SDS011;68337;52.196;5.660;2023-04-03T13:13:59;2.53;;;1.30;;
75320;SDS011;68337;52.196;5.660;2023-04-03T13:16:28;1.02;;;0.80;;
75320;SDS011;68337;52.196;5.660;2023-04-03T13:18:55;1.67;;;0.93;;
75320;SDS011;68337;52.196;5.660;2023-04-03T13:21:30;5.40;;;1.10;;
75320;SDS011;68337;52.196;5.660;2023-04-03T13:24:00;3.53;;;1.30;;
75320;SDS011;68337;52.196;5.660;2023-04-03T13:26:28;3.17;;;1.00;;
75320;SDS011;68337;52.196;5.660;2023-04-03T13:28:57;2.70;;;0.93;;
75320;SDS011;68337;52.196;5.660;2023-04-03T13:31:34;3.17;;;1.13;;
75320;SDS011;68337;52.196;5.660;2023-04-03T13:34:03;1.25;;;0.93;;
75320;SDS011;68337;52.196;5.660;2023-04-03T13:41:59;1.50;;;1.40;;
75320;SDS011;68337;52.196;5.660;2023-04-03T13:44:45;1.92;;;1.08;;
75320;SDS011;68337;52.196;5.660;2023-04-03T13:47:17;1.75;;;0.90;;
75320;SDS011;68337;52.196;5.660;2023-04-03T13:50:12;2.13;;;1.27;;
75320;SDS011;68337;52.196;5.660;2023-04-03T13:52:40;1.38;;;1.02;;
75320;SDS011;68337;52.196;5.660;2023-04-03T13:57:54;4.47;;;0.98;;
75320;SDS011;68337;52.196;5.660;2023-04-03T14:00:28;1.77;;;0.93;;
75320;SDS011;68337;52.196;5.660;2023-04-03T14:03:03;2.35;;;1.15;;
75320;SDS011;68337;52.196;5.660;2023-04-03T14:05:43;1.98;;;1.10;;
75320;SDS011;68337;52.196;5.660;2023-04-03T14:08:10;3.00;;;1.20;;
75320;SDS011;68337;52.196;5.660;2023-04-03T14:10:36;2.30;;;1.50;;
75320;SDS011;68337;52.196;5.660;2023-04-03T14:13:02;3.35;;;1.40;;
75320;SDS011;68337;52.196;5.660;2023-04-03T14:15:29;2.67;;;1.02;;
75320;SDS011;68337;52.196;5.660;2023-04-03T14:17:56;2.83;;;1.63;;
75320;SDS011;68337;52.196;5.660;2023-04-03T14:20:23;2.40;;;1.25;;
75320;SDS011;68337;52.196;5.660;2023-04-03T14:22:51;3.05;;;1.27;;
75320;SDS011;68337;52.196;5.660;2023-04-03T14:25:19;2.97;;;1.30;;
75320;SDS011;68337;52.196;5.660;2023-04-03T14:27:46;4.53;;;1.40;;
75320;SDS011;68337;52.196;5.660;2023-04-03T14:30:22;6.13;;;1.30;;
75320;SDS011;68337;52.196;5.660;2023-04-03T14:32:50;2.08;;;1.48;;
75320;SDS011;68337;52.196;5.660;2023-04-03T14:35:16;1.33;;;1.15;;
75320;SDS011;68337;52.196;5.660;2023-04-03T14:37:43;3.53;;;1.75;;
75320;SDS011;68337;52.196;5.660;2023-04-03T14:40:15;4.47;;;1.20;;
75320;SDS011;68337;52.196;5.660;2023-04-03T14:42:43;2.65;;;1.30;;
75320;SDS011;68337;52.196;5.660;2023-04-03T14:45:11;1.40;;;1.00;;
75320;SDS011;68337;52.196;5.660;2023-04-03T14:47:56;1.80;;;1.13;;
75320;SDS011;68337;52.196;5.660;2023-04-03T14:50:23;3.10;;;1.27;;
75320;SDS011;68337;52.196;5.660;2023-04-03T14:52:52;3.35;;;1.42;;
75320;SDS011;68337;52.196;5.660;2023-04-03T14:55:22;4.13;;;1.40;;
75320;SDS011;68337;52.196;5.660;2023-04-03T14:57:49;4.32;;;1.45;;
75320;SDS011;68337;52.196;5.660;2023-04-03T15:00:17;2.03;;;1.30;;
75320;SDS011;68337;52.196;5.660;2023-04-03T15:02:45;1.65;;;1.30;;
75320;SDS011;68337;52.196;5.660;2023-04-03T15:05:12;2.38;;;1.27;;
75320;SDS011;68337;52.196;5.660;2023-04-03T15:07:40;3.50;;;1.48;;
75320;SDS011;68337;52.196;5.660;2023-04-03T15:10:20;1.45;;;1.30;;
75320;SDS011;68337;52.196;5.660;2023-04-03T15:12:48;6.43;;;1.65;;
75320;SDS011;68337;52.196;5.660;2023-04-03T15:15:15;1.80;;;1.00;;
75320;SDS011;68337;52.196;5.660;2023-04-03T15:17:42;3.28;;;1.55;;
75320;SDS011;68337;52.196;5.660;2023-04-03T15:20:13;2.50;;;1.58;;
75320;SDS011;68337;52.196;5.660;2023-04-03T15:22:44;3.25;;;1.35;;
75320;SDS011;68337;52.196;5.660;2023-04-03T15:25:10;2.00;;;1.27;;
75320;SDS011;68337;52.196;5.660;2023-04-03T15:27:36;3.70;;;1.98;;
75320;SDS011;68337;52.196;5.660;2023-04-03T15:30:03;2.30;;;1.30;;
75320;SDS011;68337;52.196;5.660;2023-04-03T15:32:30;5.38;;;1.30;;
75320;SDS011;68337;52.196;5.660;2023-04-03T15:34:56;4.38;;;1.50;;
75320;SDS011;68337;52.196;5.660;2023-04-03T15:37:25;4.40;;;1.48;;
75320;SDS011;68337;52.196;5.660;2023-04-03T15:39:50;3.80;;;1.60;;
75320;SDS011;68337;52.196;5.660;2023-04-03T15:42:16;3.28;;;1.50;;
75320;SDS011;68337;52.196;5.660;2023-04-03T15:44:45;2.20;;;1.63;;
75320;SDS011;68337;52.196;5.660;2023-04-03T15:47:11;4.35;;;1.55;;
75320;SDS011;68337;52.196;5.660;2023-04-03T15:49:38;2.47;;;1.42;;
75320;SDS011;68337;52.196;5.660;2023-04-03T15:52:04;3.58;;;1.52;;
75320;SDS011;68337;52.196;5.660;2023-04-03T15:54:30;2.88;;;1.38;;
75320;SDS011;68337;52.196;5.660;2023-04-03T15:56:56;2.85;;;1.40;;
75320;SDS011;68337;52.196;5.660;2023-04-03T15:59:22;4.60;;;1.40;;
75320;SDS011;68337;52.196;5.660;2023-04-03T16:01:48;2.28;;;1.42;;
75320;SDS011;68337;52.196;5.660;2023-04-03T16:04:15;3.70;;;1.48;;
75320;SDS011;68337;52.196;5.660;2023-04-03T16:06:42;2.15;;;1.15;;
75320;SDS011;68337;52.196;5.660;2023-04-03T16:09:08;2.05;;;1.08;;
75320;SDS011;68337;52.196;5.660;2023-04-03T16:11:35;4.55;;;1.17;;
75320;SDS011;68337;52.196;5.660;2023-04-03T16:14:04;2.70;;;1.15;;
75320;SDS011;68337;52.196;5.660;2023-04-03T16:16:30;2.78;;;1.35;;
75320;SDS011;68337;52.196;5.660;2023-04-03T16:18:56;3.33;;;1.15;;
75320;SDS011;68337;52.196;5.660;2023-04-03T16:21:22;3.08;;;1.30;;
75320;SDS011;68337;52.196;5.660;2023-04-03T16:23:48;2.67;;;1.10;;
75320;SDS011;68337;52.196;5.660;2023-04-03T16:26:14;1.58;;;1.30;;
75320;SDS011;68337;52.196;5.660;2023-04-03T16:28:42;1.38;;;0.95;;
75320;SDS011;68337;52.196;5.660;2023-04-03T16:31:08;3.83;;;1.02;;
75320;SDS011;68337;52.196;5.660;2023-04-03T16:33:38;2.63;;;1.27;;
75320;SDS011;68337;52.196;5.660;2023-04-03T16:36:04;5.97;;;1.30;;
75320;SDS011;68337;52.196;5.660;2023-04-03T16:38:30;3.42;;;1.20;;
75320;SDS011;68337;52.196;5.660;2023-04-03T16:40:56;2.80;;;1.23;;
75320;SDS011;68337;52.196;5.660;2023-04-03T16:43:24;3.15;;;1.20;;
75320;SDS011;68337;52.196;5.660;2023-04-03T16:45:53;2.83;;;1.23;;
75320;SDS011;68337;52.196;5.660;2023-04-03T16:48:22;3.42;;;1.25;;
75320;SDS011;68337;52.196;5.660;2023-04-03T16:50:48;2.15;;;1.40;;